sensor_id;sensor_type;location;lat;lon;timestamp;temperature;humidity
22006;DHT22;11167;46.988;15.470;2023-06-26T00:01:23;23.00;71.20
22006;DHT22;11167;46.988;15.470;2023-06-26T00:03:24;23.00;71.20
22006;DHT22;11167;46.988;15.470;2023-06-26T00:05:25;23.00;71.20
22006;DHT22;11167;46.988;15.470;2023-06-26T00:07:31;23.00;71.30
22006;DHT22;11167;46.988;15.470;2023-06-26T00:09:34;22.90;71.20
22006;DHT22;11167;46.988;15.470;2023-06-26T00:11:35;22.90;71.20
22006;DHT22;11167;46.988;15.470;2023-06-26T00:13:36;22.90;71.20
22006;DHT22;11167;46.988;15.470;2023-06-26T00:15:37;22.90;71.20
22006;DHT22;11167;46.988;15.470;2023-06-26T00:17:38;22.80;71.20
22006;DHT22;11167;46.988;15.470;2023-06-26T00:19:39;22.80;71.20
22006;DHT22;11167;46.988;15.470;2023-06-26T00:21:40;22.80;71.20
22006;DHT22;11167;46.988;15.470;2023-06-26T00:23:43;22.80;71.20
22006;DHT22;11167;46.988;15.470;2023-06-26T00:25:44;22.70;71.10
22006;DHT22;11167;46.988;15.470;2023-06-26T00:27:46;22.70;71.20
22006;DHT22;11167;46.988;15.470;2023-06-26T00:29:47;22.70;71.10
22006;DHT22;11167;46.988;15.470;2023-06-26T00:31:48;22.70;71.10
22006;DHT22;11167;46.988;15.470;2023-06-26T00:33:49;22.70;71.20
22006;DHT22;11167;46.988;15.470;2023-06-26T00:35:50;22.60;71.00
22006;DHT22;11167;46.988;15.470;2023-06-26T00:37:52;22.60;71.00
22006;DHT22;11167;46.988;15.470;2023-06-26T00:39:53;22.60;71.00
22006;DHT22;11167;46.988;15.470;2023-06-26T00:41:54;22.50;71.00
22006;DHT22;11167;46.988;15.470;2023-06-26T00:43:55;22.50;71.00
22006;DHT22;11167;46.988;15.470;2023-06-26T00:45:56;22.50;71.00
22006;DHT22;11167;46.988;15.470;2023-06-26T00:47:57;22.40;71.00
22006;DHT22;11167;46.988;15.470;2023-06-26T00:49:58;22.50;71.00
22006;DHT22;11167;46.988;15.470;2023-06-26T00:51:59;22.40;71.00
22006;DHT22;11167;46.988;15.470;2023-06-26T00:54:01;22.40;71.00
22006;DHT22;11167;46.988;15.470;2023-06-26T00:56:03;22.40;71.00
22006;DHT22;11167;46.988;15.470;2023-06-26T00:58:04;22.40;71.00
22006;DHT22;11167;46.988;15.470;2023-06-26T01:00:06;22.30;71.00
22006;DHT22;11167;46.988;15.470;2023-06-26T01:02:07;22.30;71.00
22006;DHT22;11167;46.988;15.470;2023-06-26T01:04:11;22.30;71.10
22006;DHT22;11167;46.988;15.470;2023-06-26T01:06:14;22.20;70.90
22006;DHT22;11167;46.988;15.470;2023-06-26T01:08:17;22.20;70.90
22006;DHT22;11167;46.988;15.470;2023-06-26T01:10:19;22.20;71.70
22006;DHT22;11167;46.988;15.470;2023-06-26T01:12:20;22.20;70.90
22006;DHT22;11167;46.988;15.470;2023-06-26T01:14:21;22.10;70.90
22006;DHT22;11167;46.988;15.470;2023-06-26T01:16:24;22.10;70.90
22006;DHT22;11167;46.988;15.470;2023-06-26T01:18:26;22.10;70.90
22006;DHT22;11167;46.988;15.470;2023-06-26T01:20:28;22.10;70.90
22006;DHT22;11167;46.988;15.470;2023-06-26T01:24:39;22.00;70.90
22006;DHT22;11167;46.988;15.470;2023-06-26T01:26:42;22.00;70.90
22006;DHT22;11167;46.988;15.470;2023-06-26T01:28:45;22.00;70.90
22006;DHT22;11167;46.988;15.470;2023-06-26T01:30:48;21.90;71.60
22006;DHT22;11167;46.988;15.470;2023-06-26T01:32:50;21.90;70.90
22006;DHT22;11167;46.988;15.470;2023-06-26T01:34:52;21.90;71.60
22006;DHT22;11167;46.988;15.470;2023-06-26T01:36:53;21.90;70.90
22006;DHT22;11167;46.988;15.470;2023-06-26T01:38:55;21.80;71.70
22006;DHT22;11167;46.988;15.470;2023-06-26T01:40:57;21.80;70.90
22006;DHT22;11167;46.988;15.470;2023-06-26T01:43:00;21.80;70.90
22006;DHT22;11167;46.988;15.470;2023-06-26T01:45:18;21.80;70.90
22006;DHT22;11167;46.988;15.470;2023-06-26T01:47:21;21.80;70.90
22006;DHT22;11167;46.988;15.470;2023-06-26T01:51:51;21.70;70.90
22006;DHT22;11167;46.988;15.470;2023-06-26T01:53:52;21.70;70.90
22006;DHT22;11167;46.988;15.470;2023-06-26T01:56:00;21.70;70.90
22006;DHT22;11167;46.988;15.470;2023-06-26T01:58:03;21.60;70.90
22006;DHT22;11167;46.988;15.470;2023-06-26T02:00:05;21.60;71.00
22006;DHT22;11167;46.988;15.470;2023-06-26T02:02:09;21.60;70.90
22006;DHT22;11167;46.988;15.470;2023-06-26T02:04:10;21.60;70.90
22006;DHT22;11167;46.988;15.470;2023-06-26T02:06:11;21.50;70.90
22006;DHT22;11167;46.988;15.470;2023-06-26T02:08:14;21.50;70.90
22006;DHT22;11167;46.988;15.470;2023-06-26T02:10:16;21.50;71.00
22006;DHT22;11167;46.988;15.470;2023-06-26T02:12:17;21.50;70.90
22006;DHT22;11167;46.988;15.470;2023-06-26T02:14:18;21.40;70.90
22006;DHT22;11167;46.988;15.470;2023-06-26T02:16:19;21.40;70.90
22006;DHT22;11167;46.988;15.470;2023-06-26T02:18:20;21.40;71.00
22006;DHT22;11167;46.988;15.470;2023-06-26T02:20:23;21.40;71.00
22006;DHT22;11167;46.988;15.470;2023-06-26T02:22:24;21.40;70.90
22006;DHT22;11167;46.988;15.470;2023-06-26T02:24:25;21.30;71.20
22006;DHT22;11167;46.988;15.470;2023-06-26T02:26:28;21.30;71.80
22006;DHT22;11167;46.988;15.470;2023-06-26T02:28:29;21.30;71.00
22006;DHT22;11167;46.988;15.470;2023-06-26T02:30:31;21.30;70.90
22006;DHT22;11167;46.988;15.470;2023-06-26T02:32:32;21.30;71.00
22006;DHT22;11167;46.988;15.470;2023-06-26T02:34:34;21.20;71.80
22006;DHT22;11167;46.988;15.470;2023-06-26T02:36:36;21.20;70.90
22006;DHT22;11167;46.988;15.470;2023-06-26T02:38:37;21.20;70.90
22006;DHT22;11167;46.988;15.470;2023-06-26T02:40:38;21.20;71.00
22006;DHT22;11167;46.988;15.470;2023-06-26T02:42:39;21.20;71.00
22006;DHT22;11167;46.988;15.470;2023-06-26T02:44:40;21.10;71.00
22006;DHT22;11167;46.988;15.470;2023-06-26T02:46:41;21.10;70.90
22006;DHT22;11167;46.988;15.470;2023-06-26T02:48:43;21.10;70.90
22006;DHT22;11167;46.988;15.470;2023-06-26T02:50:44;21.10;70.90
22006;DHT22;11167;46.988;15.470;2023-06-26T02:52:47;21.10;71.00
22006;DHT22;11167;46.988;15.470;2023-06-26T02:54:50;21.00;70.90
22006;DHT22;11167;46.988;15.470;2023-06-26T02:56:51;21.00;70.90
22006;DHT22;11167;46.988;15.470;2023-06-26T02:58:52;21.00;70.80
22006;DHT22;11167;46.988;15.470;2023-06-26T03:00:53;21.00;71.00
22006;DHT22;11167;46.988;15.470;2023-06-26T03:02:54;20.90;70.90
22006;DHT22;11167;46.988;15.470;2023-06-26T03:04:55;20.90;70.90
22006;DHT22;11167;46.988;15.470;2023-06-26T03:06:58;20.90;71.00
22006;DHT22;11167;46.988;15.470;2023-06-26T03:08:59;20.90;71.00
22006;DHT22;11167;46.988;15.470;2023-06-26T03:11:00;20.90;71.00
22006;DHT22;11167;46.988;15.470;2023-06-26T03:13:01;20.90;71.00
22006;DHT22;11167;46.988;15.470;2023-06-26T03:15:02;20.80;71.00
22006;DHT22;11167;46.988;15.470;2023-06-26T03:17:04;20.80;71.00
22006;DHT22;11167;46.988;15.470;2023-06-26T03:19:06;20.80;71.00
22006;DHT22;11167;46.988;15.470;2023-06-26T03:21:08;20.80;71.00
22006;DHT22;11167;46.988;15.470;2023-06-26T03:23:10;20.80;71.00
22006;DHT22;11167;46.988;15.470;2023-06-26T03:25:11;20.80;71.00
22006;DHT22;11167;46.988;15.470;2023-06-26T03:27:12;20.70;71.00
22006;DHT22;11167;46.988;15.470;2023-06-26T03:29:13;20.70;71.10
22006;DHT22;11167;46.988;15.470;2023-06-26T03:31:14;20.70;71.10
22006;DHT22;11167;46.988;15.470;2023-06-26T03:33:15;20.70;71.10
22006;DHT22;11167;46.988;15.470;2023-06-26T03:35:16;20.60;71.10
22006;DHT22;11167;46.988;15.470;2023-06-26T03:37:17;20.60;71.10
22006;DHT22;11167;46.988;15.470;2023-06-26T03:39:18;20.60;71.10
22006;DHT22;11167;46.988;15.470;2023-06-26T03:41:20;20.60;71.10
22006;DHT22;11167;46.988;15.470;2023-06-26T03:43:21;20.60;71.10
22006;DHT22;11167;46.988;15.470;2023-06-26T03:45:22;20.60;71.10
22006;DHT22;11167;46.988;15.470;2023-06-26T03:47:23;20.60;71.20
22006;DHT22;11167;46.988;15.470;2023-06-26T03:49:24;20.50;71.70
22006;DHT22;11167;46.988;15.470;2023-06-26T03:51:25;20.50;71.10
22006;DHT22;11167;46.988;15.470;2023-06-26T03:53:26;20.50;71.10
22006;DHT22;11167;46.988;15.470;2023-06-26T03:55:27;20.50;71.20
22006;DHT22;11167;46.988;15.470;2023-06-26T03:57:28;20.40;71.10
22006;DHT22;11167;46.988;15.470;2023-06-26T03:59:29;20.40;71.10
22006;DHT22;11167;46.988;15.470;2023-06-26T04:01:30;20.40;71.20
22006;DHT22;11167;46.988;15.470;2023-06-26T04:03:33;20.40;71.20
22006;DHT22;11167;46.988;15.470;2023-06-26T04:05:34;20.40;71.20
22006;DHT22;11167;46.988;15.470;2023-06-26T04:07:37;20.40;71.20
22006;DHT22;11167;46.988;15.470;2023-06-26T04:09:39;20.30;71.20
22006;DHT22;11167;46.988;15.470;2023-06-26T04:11:40;20.30;71.20
22006;DHT22;11167;46.988;15.470;2023-06-26T04:13:41;20.30;71.20
22006;DHT22;11167;46.988;15.470;2023-06-26T04:15:42;20.30;71.30
22006;DHT22;11167;46.988;15.470;2023-06-26T04:17:43;20.30;71.30
22006;DHT22;11167;46.988;15.470;2023-06-26T04:19:44;20.30;71.30
22006;DHT22;11167;46.988;15.470;2023-06-26T04:21:45;20.30;72.20
22006;DHT22;11167;46.988;15.470;2023-06-26T04:23:46;20.20;71.90
22006;DHT22;11167;46.988;15.470;2023-06-26T04:25:48;20.30;71.30
22006;DHT22;11167;46.988;15.470;2023-06-26T04:27:49;20.20;71.30
22006;DHT22;11167;46.988;15.470;2023-06-26T04:29:50;20.20;71.30
22006;DHT22;11167;46.988;15.470;2023-06-26T04:31:51;20.20;71.40
22006;DHT22;11167;46.988;15.470;2023-06-26T04:33:53;20.10;71.30
22006;DHT22;11167;46.988;15.470;2023-06-26T04:35:55;20.20;71.40
22006;DHT22;11167;46.988;15.470;2023-06-26T04:37:56;20.10;71.30
22006;DHT22;11167;46.988;15.470;2023-06-26T04:39:57;20.10;71.40
22006;DHT22;11167;46.988;15.470;2023-06-26T04:41:58;20.10;71.40
22006;DHT22;11167;46.988;15.470;2023-06-26T04:44:00;20.10;71.50
22006;DHT22;11167;46.988;15.470;2023-06-26T04:46:02;20.10;71.50
22006;DHT22;11167;46.988;15.470;2023-06-26T04:48:04;20.10;71.50
22006;DHT22;11167;46.988;15.470;2023-06-26T04:50:07;20.00;71.40
22006;DHT22;11167;46.988;15.470;2023-06-26T04:52:10;20.00;71.50
22006;DHT22;11167;46.988;15.470;2023-06-26T04:54:11;20.00;71.50
22006;DHT22;11167;46.988;15.470;2023-06-26T04:56:12;20.00;71.50
22006;DHT22;11167;46.988;15.470;2023-06-26T04:58:13;20.00;71.50
22006;DHT22;11167;46.988;15.470;2023-06-26T05:00:15;20.00;71.60
22006;DHT22;11167;46.988;15.470;2023-06-26T05:02:16;20.00;71.50
22006;DHT22;11167;46.988;15.470;2023-06-26T05:04:17;20.00;71.50
22006;DHT22;11167;46.988;15.470;2023-06-26T05:06:18;20.00;71.50
22006;DHT22;11167;46.988;15.470;2023-06-26T05:08:24;19.90;71.50
22006;DHT22;11167;46.988;15.470;2023-06-26T05:10:27;19.90;71.50
22006;DHT22;11167;46.988;15.470;2023-06-26T05:12:28;19.90;71.60
22006;DHT22;11167;46.988;15.470;2023-06-26T05:14:29;19.90;71.60
22006;DHT22;11167;46.988;15.470;2023-06-26T05:16:30;19.90;71.60
22006;DHT22;11167;46.988;15.470;2023-06-26T05:18:31;19.90;71.50
22006;DHT22;11167;46.988;15.470;2023-06-26T05:20:32;19.90;71.60
22006;DHT22;11167;46.988;15.470;2023-06-26T05:22:34;19.90;71.60
22006;DHT22;11167;46.988;15.470;2023-06-26T05:24:38;19.90;71.60
22006;DHT22;11167;46.988;15.470;2023-06-26T05:26:39;19.90;71.60
22006;DHT22;11167;46.988;15.470;2023-06-26T05:28:41;19.90;72.40
22006;DHT22;11167;46.988;15.470;2023-06-26T05:30:44;19.80;71.70
22006;DHT22;11167;46.988;15.470;2023-06-26T05:32:47;19.80;71.70
22006;DHT22;11167;46.988;15.470;2023-06-26T05:34:51;19.80;71.70
22006;DHT22;11167;46.988;15.470;2023-06-26T05:36:58;19.80;71.70
22006;DHT22;11167;46.988;15.470;2023-06-26T05:39:00;19.80;71.70
22006;DHT22;11167;46.988;15.470;2023-06-26T05:41:01;19.80;71.70
22006;DHT22;11167;46.988;15.470;2023-06-26T05:43:03;19.80;71.70
22006;DHT22;11167;46.988;15.470;2023-06-26T05:45:04;19.80;71.70
22006;DHT22;11167;46.988;15.470;2023-06-26T05:47:06;19.80;71.70
22006;DHT22;11167;46.988;15.470;2023-06-26T05:49:07;19.80;71.70
22006;DHT22;11167;46.988;15.470;2023-06-26T05:51:09;19.70;71.80
22006;DHT22;11167;46.988;15.470;2023-06-26T05:53:10;19.80;71.70
22006;DHT22;11167;46.988;15.470;2023-06-26T05:55:13;19.70;71.70
22006;DHT22;11167;46.988;15.470;2023-06-26T05:57:15;19.70;71.70
22006;DHT22;11167;46.988;15.470;2023-06-26T05:59:17;19.70;71.70
22006;DHT22;11167;46.988;15.470;2023-06-26T06:01:19;19.70;71.70
22006;DHT22;11167;46.988;15.470;2023-06-26T06:03:20;19.70;71.70
22006;DHT22;11167;46.988;15.470;2023-06-26T06:05:22;19.70;71.70
22006;DHT22;11167;46.988;15.470;2023-06-26T06:07:23;19.70;71.70
22006;DHT22;11167;46.988;15.470;2023-06-26T06:09:24;19.70;71.70
22006;DHT22;11167;46.988;15.470;2023-06-26T06:11:25;19.70;72.10
22006;DHT22;11167;46.988;15.470;2023-06-26T06:13:27;19.70;71.70
22006;DHT22;11167;46.988;15.470;2023-06-26T06:15:29;19.70;71.20
22006;DHT22;11167;46.988;15.470;2023-06-26T06:17:30;19.70;71.70
22006;DHT22;11167;46.988;15.470;2023-06-26T06:19:31;19.70;71.70
22006;DHT22;11167;46.988;15.470;2023-06-26T06:21:33;19.70;71.80
22006;DHT22;11167;46.988;15.470;2023-06-26T06:23:34;19.70;71.40
22006;DHT22;11167;46.988;15.470;2023-06-26T06:25:35;19.70;71.80
22006;DHT22;11167;46.988;15.470;2023-06-26T06:27:36;19.70;71.80
22006;DHT22;11167;46.988;15.470;2023-06-26T06:29:37;19.70;71.80
22006;DHT22;11167;46.988;15.470;2023-06-26T06:31:38;19.70;71.80
22006;DHT22;11167;46.988;15.470;2023-06-26T06:33:39;19.70;71.90
22006;DHT22;11167;46.988;15.470;2023-06-26T06:35:40;19.70;71.90
22006;DHT22;11167;46.988;15.470;2023-06-26T06:37:41;19.70;72.80
22006;DHT22;11167;46.988;15.470;2023-06-26T06:39:43;19.70;71.90
22006;DHT22;11167;46.988;15.470;2023-06-26T06:41:43;19.70;71.90
22006;DHT22;11167;46.988;15.470;2023-06-26T06:43:45;19.80;72.00
22006;DHT22;11167;46.988;15.470;2023-06-26T06:45:46;19.80;72.00
22006;DHT22;11167;46.988;15.470;2023-06-26T06:47:47;19.80;72.10
22006;DHT22;11167;46.988;15.470;2023-06-26T06:49:48;19.80;72.10
22006;DHT22;11167;46.988;15.470;2023-06-26T06:51:49;19.80;72.10
22006;DHT22;11167;46.988;15.470;2023-06-26T06:53:50;19.80;72.10
22006;DHT22;11167;46.988;15.470;2023-06-26T06:55:51;19.80;72.10
22006;DHT22;11167;46.988;15.470;2023-06-26T06:57:52;19.80;72.20
22006;DHT22;11167;46.988;15.470;2023-06-26T06:59:53;19.80;72.20
22006;DHT22;11167;46.988;15.470;2023-06-26T07:01:54;19.80;72.30
22006;DHT22;11167;46.988;15.470;2023-06-26T07:03:55;19.80;72.30
22006;DHT22;11167;46.988;15.470;2023-06-26T07:05:56;19.80;72.30
22006;DHT22;11167;46.988;15.470;2023-06-26T07:07:57;19.80;72.30
22006;DHT22;11167;46.988;15.470;2023-06-26T07:12:24;19.80;72.30
22006;DHT22;11167;46.988;15.470;2023-06-26T07:14:25;19.90;72.40
22006;DHT22;11167;46.988;15.470;2023-06-26T07:16:26;19.90;72.40
22006;DHT22;11167;46.988;15.470;2023-06-26T07:18:27;19.90;72.40
22006;DHT22;11167;46.988;15.470;2023-06-26T07:20:29;19.90;72.50
22006;DHT22;11167;46.988;15.470;2023-06-26T07:22:30;19.90;72.50
22006;DHT22;11167;46.988;15.470;2023-06-26T07:24:31;19.90;72.60
22006;DHT22;11167;46.988;15.470;2023-06-26T07:26:33;19.90;72.60
22006;DHT22;11167;46.988;15.470;2023-06-26T07:28:34;19.90;72.60
22006;DHT22;11167;46.988;15.470;2023-06-26T07:30:35;19.90;72.60
22006;DHT22;11167;46.988;15.470;2023-06-26T07:32:36;19.90;72.70
22006;DHT22;11167;46.988;15.470;2023-06-26T07:34:38;19.90;72.60
22006;DHT22;11167;46.988;15.470;2023-06-26T07:36:39;19.90;72.60
22006;DHT22;11167;46.988;15.470;2023-06-26T07:38:40;19.90;72.80
22006;DHT22;11167;46.988;15.470;2023-06-26T07:40:41;20.00;72.80
22006;DHT22;11167;46.988;15.470;2023-06-26T07:42:42;20.00;72.80
22006;DHT22;11167;46.988;15.470;2023-06-26T07:44:43;20.00;72.80
22006;DHT22;11167;46.988;15.470;2023-06-26T07:46:44;20.00;72.90
22006;DHT22;11167;46.988;15.470;2023-06-26T07:48:45;20.00;72.90
22006;DHT22;11167;46.988;15.470;2023-06-26T07:50:46;20.00;73.00
22006;DHT22;11167;46.988;15.470;2023-06-26T07:52:47;20.10;73.00
22006;DHT22;11167;46.988;15.470;2023-06-26T07:54:49;20.10;73.10
22006;DHT22;11167;46.988;15.470;2023-06-26T07:56:56;20.10;73.10
22006;DHT22;11167;46.988;15.470;2023-06-26T07:58:58;20.10;73.10
22006;DHT22;11167;46.988;15.470;2023-06-26T08:01:01;20.10;73.20
22006;DHT22;11167;46.988;15.470;2023-06-26T08:03:02;20.20;73.30
22006;DHT22;11167;46.988;15.470;2023-06-26T08:05:03;20.20;73.30
22006;DHT22;11167;46.988;15.470;2023-06-26T08:07:05;20.20;73.30
22006;DHT22;11167;46.988;15.470;2023-06-26T08:09:07;20.20;73.30
22006;DHT22;11167;46.988;15.470;2023-06-26T08:11:11;20.30;73.40
22006;DHT22;11167;46.988;15.470;2023-06-26T08:13:12;20.20;73.40
22006;DHT22;11167;46.988;15.470;2023-06-26T08:15:13;20.20;73.50
22006;DHT22;11167;46.988;15.470;2023-06-26T08:17:14;20.30;73.50
22006;DHT22;11167;46.988;15.470;2023-06-26T08:19:16;20.30;73.60
22006;DHT22;11167;46.988;15.470;2023-06-26T08:21:17;20.30;73.70
22006;DHT22;11167;46.988;15.470;2023-06-26T08:23:20;20.30;73.60
22006;DHT22;11167;46.988;15.470;2023-06-26T08:25:22;20.40;73.70
22006;DHT22;11167;46.988;15.470;2023-06-26T08:27:23;20.40;73.80
22006;DHT22;11167;46.988;15.470;2023-06-26T08:29:24;20.40;73.70
22006;DHT22;11167;46.988;15.470;2023-06-26T08:31:25;20.40;73.80
22006;DHT22;11167;46.988;15.470;2023-06-26T08:33:26;20.40;73.90
22006;DHT22;11167;46.988;15.470;2023-06-26T08:35:27;20.50;73.90
22006;DHT22;11167;46.988;15.470;2023-06-26T08:37:28;20.50;74.00
22006;DHT22;11167;46.988;15.470;2023-06-26T08:39:29;20.50;73.90
22006;DHT22;11167;46.988;15.470;2023-06-26T08:41:31;20.50;73.90
22006;DHT22;11167;46.988;15.470;2023-06-26T08:43:32;20.60;74.10
22006;DHT22;11167;46.988;15.470;2023-06-26T08:45:34;20.60;74.10
22006;DHT22;11167;46.988;15.470;2023-06-26T08:47:37;20.60;74.10
22006;DHT22;11167;46.988;15.470;2023-06-26T08:49:51;20.70;74.10
22006;DHT22;11167;46.988;15.470;2023-06-26T08:51:57;20.70;74.10
22006;DHT22;11167;46.988;15.470;2023-06-26T08:54:00;20.70;74.10
22006;DHT22;11167;46.988;15.470;2023-06-26T08:56:02;20.70;74.20
22006;DHT22;11167;46.988;15.470;2023-06-26T08:58:04;20.70;74.30
22006;DHT22;11167;46.988;15.470;2023-06-26T09:00:06;20.80;75.10
22006;DHT22;11167;46.988;15.470;2023-06-26T09:02:10;20.80;74.20
22006;DHT22;11167;46.988;15.470;2023-06-26T09:04:11;20.80;74.30
22006;DHT22;11167;46.988;15.470;2023-06-26T09:06:13;20.80;74.30
22006;DHT22;11167;46.988;15.470;2023-06-26T09:08:14;20.80;74.30
22006;DHT22;11167;46.988;15.470;2023-06-26T09:10:15;20.90;74.40
22006;DHT22;11167;46.988;15.470;2023-06-26T09:12:16;20.90;74.40
22006;DHT22;11167;46.988;15.470;2023-06-26T09:14:18;21.00;74.40
22006;DHT22;11167;46.988;15.470;2023-06-26T09:16:27;21.00;74.50
22006;DHT22;11167;46.988;15.470;2023-06-26T09:18:29;21.00;74.40
22006;DHT22;11167;46.988;15.470;2023-06-26T09:20:31;21.00;74.50
22006;DHT22;11167;46.988;15.470;2023-06-26T09:22:36;21.10;74.60
22006;DHT22;11167;46.988;15.470;2023-06-26T09:24:37;21.10;74.60
22006;DHT22;11167;46.988;15.470;2023-06-26T09:26:39;21.10;76.20
22006;DHT22;11167;46.988;15.470;2023-06-26T09:28:42;21.10;74.70
22006;DHT22;11167;46.988;15.470;2023-06-26T09:30:44;21.20;74.80
22006;DHT22;11167;46.988;15.470;2023-06-26T09:32:49;21.20;74.80
22006;DHT22;11167;46.988;15.470;2023-06-26T09:34:53;21.20;74.70
22006;DHT22;11167;46.988;15.470;2023-06-26T09:36:56;21.20;74.70
22006;DHT22;11167;46.988;15.470;2023-06-26T09:38:57;21.30;74.80
22006;DHT22;11167;46.988;15.470;2023-06-26T09:40:58;21.30;74.80
22006;DHT22;11167;46.988;15.470;2023-06-26T09:43:04;21.30;74.80
22006;DHT22;11167;46.988;15.470;2023-06-26T09:45:05;21.40;74.80
22006;DHT22;11167;46.988;15.470;2023-06-26T09:47:06;21.40;74.80
22006;DHT22;11167;46.988;15.470;2023-06-26T09:49:09;21.40;74.80
22006;DHT22;11167;46.988;15.470;2023-06-26T09:51:16;21.50;74.80
22006;DHT22;11167;46.988;15.470;2023-06-26T09:53:17;21.50;74.80
22006;DHT22;11167;46.988;15.470;2023-06-26T09:55:20;21.50;74.90
22006;DHT22;11167;46.988;15.470;2023-06-26T09:57:22;21.50;74.80
22006;DHT22;11167;46.988;15.470;2023-06-26T09:59:23;21.60;74.90
22006;DHT22;11167;46.988;15.470;2023-06-26T10:01:26;21.60;74.90
22006;DHT22;11167;46.988;15.470;2023-06-26T10:03:27;21.60;74.90
22006;DHT22;11167;46.988;15.470;2023-06-26T10:05:29;21.70;74.90
22006;DHT22;11167;46.988;15.470;2023-06-26T10:07:30;21.70;75.00
22006;DHT22;11167;46.988;15.470;2023-06-26T10:09:32;21.70;75.00
22006;DHT22;11167;46.988;15.470;2023-06-26T10:11:44;21.80;75.80
22006;DHT22;11167;46.988;15.470;2023-06-26T10:13:45;21.80;75.00
22006;DHT22;11167;46.988;15.470;2023-06-26T10:15:50;21.80;75.00
22006;DHT22;11167;46.988;15.470;2023-06-26T10:17:53;21.90;75.00
22006;DHT22;11167;46.988;15.470;2023-06-26T10:19:55;21.90;75.00
22006;DHT22;11167;46.988;15.470;2023-06-26T10:21:58;21.90;75.00
22006;DHT22;11167;46.988;15.470;2023-06-26T10:24:03;22.00;75.10
22006;DHT22;11167;46.988;15.470;2023-06-26T10:26:04;22.00;75.10
22006;DHT22;11167;46.988;15.470;2023-06-26T10:28:07;22.00;76.20
22006;DHT22;11167;46.988;15.470;2023-06-26T10:30:11;22.00;75.30
22006;DHT22;11167;46.988;15.470;2023-06-26T10:32:14;22.10;76.40
22006;DHT22;11167;46.988;15.470;2023-06-26T10:34:16;22.10;75.40
22006;DHT22;11167;46.988;15.470;2023-06-26T10:36:19;22.10;75.40
22006;DHT22;11167;46.988;15.470;2023-06-26T10:38:21;22.20;75.40
22006;DHT22;11167;46.988;15.470;2023-06-26T10:40:27;22.20;75.40
22006;DHT22;11167;46.988;15.470;2023-06-26T10:42:37;22.20;75.20
22006;DHT22;11167;46.988;15.470;2023-06-26T10:44:42;22.30;75.40
22006;DHT22;11167;46.988;15.470;2023-06-26T10:46:52;22.30;75.30
22006;DHT22;11167;46.988;15.470;2023-06-26T10:48:59;22.30;75.40
22006;DHT22;11167;46.988;15.470;2023-06-26T10:51:23;22.40;75.40
22006;DHT22;11167;46.988;15.470;2023-06-26T10:55:27;22.50;75.50
22006;DHT22;11167;46.988;15.470;2023-06-26T10:57:29;22.50;75.50
22006;DHT22;11167;46.988;15.470;2023-06-26T11:00:00;22.50;75.50
22006;DHT22;11167;46.988;15.470;2023-06-26T11:02:02;22.50;75.50
22006;DHT22;11167;46.988;15.470;2023-06-26T11:04:07;22.60;75.60
22006;DHT22;11167;46.988;15.470;2023-06-26T11:06:14;22.70;75.60
22006;DHT22;11167;46.988;15.470;2023-06-26T11:08:12;22.70;75.60
22006;DHT22;11167;46.988;15.470;2023-06-26T11:10:16;22.70;75.60
22006;DHT22;11167;46.988;15.470;2023-06-26T11:13:19;22.80;75.70
22006;DHT22;11167;46.988;15.470;2023-06-26T11:14:31;22.80;75.70
22006;DHT22;11167;46.988;15.470;2023-06-26T11:16:33;22.80;75.70
22006;DHT22;11167;46.988;15.470;2023-06-26T11:18:34;22.90;75.70
22006;DHT22;11167;46.988;15.470;2023-06-26T11:20:48;22.90;75.70
22006;DHT22;11167;46.988;15.470;2023-06-26T11:22:52;22.80;75.70
22006;DHT22;11167;46.988;15.470;2023-06-26T11:24:54;23.00;75.80
22006;DHT22;11167;46.988;15.470;2023-06-26T11:26:59;23.10;75.90
22006;DHT22;11167;46.988;15.470;2023-06-26T11:29:01;23.10;75.90
22006;DHT22;11167;46.988;15.470;2023-06-26T11:31:02;23.10;76.20
22006;DHT22;11167;46.988;15.470;2023-06-26T11:33:06;23.20;75.90
22006;DHT22;11167;46.988;15.470;2023-06-26T11:35:08;23.20;75.90
22006;DHT22;11167;46.988;15.470;2023-06-26T11:37:10;23.20;75.90
22006;DHT22;11167;46.988;15.470;2023-06-26T11:39:12;23.30;76.00
22006;DHT22;11167;46.988;15.470;2023-06-26T11:41:18;23.30;75.90
22006;DHT22;11167;46.988;15.470;2023-06-26T11:43:20;23.40;76.00
22006;DHT22;11167;46.988;15.470;2023-06-26T11:45:21;23.40;76.00
22006;DHT22;11167;46.988;15.470;2023-06-26T11:47:22;23.50;76.10
22006;DHT22;11167;46.988;15.470;2023-06-26T11:49:23;23.50;76.00
22006;DHT22;11167;46.988;15.470;2023-06-26T11:51:27;23.50;76.10
22006;DHT22;11167;46.988;15.470;2023-06-26T11:53:49;23.50;76.10
22006;DHT22;11167;46.988;15.470;2023-06-26T11:55:50;23.60;76.10
22006;DHT22;11167;46.988;15.470;2023-06-26T11:57:53;23.70;76.20
22006;DHT22;11167;46.988;15.470;2023-06-26T11:59:54;23.70;76.20
22006;DHT22;11167;46.988;15.470;2023-06-26T12:01:55;23.70;76.20
22006;DHT22;11167;46.988;15.470;2023-06-26T12:03:59;23.80;76.30
22006;DHT22;11167;46.988;15.470;2023-06-26T12:06:01;23.80;76.20
22006;DHT22;11167;46.988;15.470;2023-06-26T12:08:05;23.80;76.20
22006;DHT22;11167;46.988;15.470;2023-06-26T12:10:09;23.90;76.40
22006;DHT22;11167;46.988;15.470;2023-06-26T12:12:15;23.90;76.40
22006;DHT22;11167;46.988;15.470;2023-06-26T12:14:17;24.00;76.40
22006;DHT22;11167;46.988;15.470;2023-06-26T12:16:19;24.00;76.40
22006;DHT22;11167;46.988;15.470;2023-06-26T12:18:20;24.10;76.40
22006;DHT22;11167;46.988;15.470;2023-06-26T12:20:23;24.10;76.40
22006;DHT22;11167;46.988;15.470;2023-06-26T12:22:33;24.20;76.40
22006;DHT22;11167;46.988;15.470;2023-06-26T12:24:32;24.20;76.40
22006;DHT22;11167;46.988;15.470;2023-06-26T12:26:34;24.20;76.50
22006;DHT22;11167;46.988;15.470;2023-06-26T12:28:37;24.30;76.50
22006;DHT22;11167;46.988;15.470;2023-06-26T12:30:38;24.30;76.50
22006;DHT22;11167;46.988;15.470;2023-06-26T12:32:39;24.40;76.50
22006;DHT22;11167;46.988;15.470;2023-06-26T12:34:41;24.40;76.50
22006;DHT22;11167;46.988;15.470;2023-06-26T12:36:43;24.40;76.50
22006;DHT22;11167;46.988;15.470;2023-06-26T12:38:45;24.50;76.50
22006;DHT22;11167;46.988;15.470;2023-06-26T12:40:47;24.50;76.50
22006;DHT22;11167;46.988;15.470;2023-06-26T12:42:49;24.50;76.50
22006;DHT22;11167;46.988;15.470;2023-06-26T12:44:51;24.60;76.50
22006;DHT22;11167;46.988;15.470;2023-06-26T12:46:57;24.60;76.50
22006;DHT22;11167;46.988;15.470;2023-06-26T12:48:58;24.60;76.50